sensor_id;sensor_type;location;lat;lon;timestamp;P1;durP1;ratioP1;P2;durP2;ratioP2
79220;SDS011;68648;52.114;5.424;2023-04-24T00:03:33;2.50;;;0.30;;
79220;SDS011;68648;52.114;5.424;2023-04-24T00:06:01;1.48;;;0.30;;
79220;SDS011;68648;52.114;5.424;2023-04-24T00:08:28;1.95;;;0.40;;
79220;SDS011;68648;52.114;5.424;2023-04-24T00:10:55;5.03;;;0.50;;
79220;SDS011;68648;52.114;5.424;2023-04-24T00:13:21;2.60;;;0.50;;
79220;SDS011;68648;52.114;5.424;2023-04-24T00:18:14;3.72;;;0.70;;
79220;SDS011;68648;52.114;5.424;2023-04-24T00:20:41;2.53;;;0.82;;
79220;SDS011;68648;52.114;5.424;2023-04-24T00:23:09;5.10;;;1.13;;
79220;SDS011;68648;52.114;5.424;2023-04-24T00:25:36;4.45;;;0.90;;
79220;SDS011;68648;52.114;5.424;2023-04-24T00:30:29;4.70;;;0.80;;
79220;SDS011;68648;52.114;5.424;2023-04-24T00:32:55;4.78;;;1.20;;
79220;SDS011;68648;52.114;5.424;2023-04-24T00:35:23;3.13;;;0.80;;
79220;SDS011;68648;52.114;5.424;2023-04-24T00:37:50;3.30;;;0.85;;
79220;SDS011;68648;52.114;5.424;2023-04-24T00:40:16;3.58;;;1.13;;
79220;SDS011;68648;52.114;5.424;2023-04-24T00:42:43;4.57;;;1.15;;
79220;SDS011;68648;52.114;5.424;2023-04-24T00:45:11;7.57;;;1.48;;
79220;SDS011;68648;52.114;5.424;2023-04-24T00:47:38;4.88;;;1.35;;
79220;SDS011;68648;52.114;5.424;2023-04-24T00:50:05;5.78;;;1.70;;
79220;SDS011;68648;52.114;5.424;2023-04-24T00:52:33;5.20;;;1.48;;
79220;SDS011;68648;52.114;5.424;2023-04-24T00:54:59;5.03;;;1.90;;
79220;SDS011;68648;52.114;5.424;2023-04-24T00:57:26;5.43;;;1.70;;
79220;SDS011;68648;52.114;5.424;2023-04-24T00:59:53;4.80;;;1.55;;
79220;SDS011;68648;52.114;5.424;2023-04-24T01:02:19;4.47;;;1.42;;
79220;SDS011;68648;52.114;5.424;2023-04-24T01:04:49;4.75;;;1.95;;
79220;SDS011;68648;52.114;5.424;2023-04-24T01:07:20;6.88;;;1.70;;
79220;SDS011;68648;52.114;5.424;2023-04-24T01:09:47;6.63;;;1.50;;
79220;SDS011;68648;52.114;5.424;2023-04-24T01:12:15;5.80;;;1.90;;
79220;SDS011;68648;52.114;5.424;2023-04-24T01:14:41;5.57;;;2.10;;
79220;SDS011;68648;52.114;5.424;2023-04-24T01:17:09;4.88;;;1.77;;
79220;SDS011;68648;52.114;5.424;2023-04-24T01:19:35;5.35;;;1.58;;
79220;SDS011;68648;52.114;5.424;2023-04-24T01:22:03;6.85;;;2.10;;
79220;SDS011;68648;52.114;5.424;2023-04-24T01:24:38;9.25;;;2.70;;
79220;SDS011;68648;52.114;5.424;2023-04-24T01:27:05;5.32;;;2.17;;
79220;SDS011;68648;52.114;5.424;2023-04-24T01:29:32;6.55;;;2.50;;
79220;SDS011;68648;52.114;5.424;2023-04-24T01:32:00;6.78;;;2.67;;
79220;SDS011;68648;52.114;5.424;2023-04-24T01:34:27;6.32;;;2.58;;
79220;SDS011;68648;52.114;5.424;2023-04-24T01:36:53;6.15;;;2.67;;
79220;SDS011;68648;52.114;5.424;2023-04-24T01:39:20;6.78;;;2.90;;
79220;SDS011;68648;52.114;5.424;2023-04-24T01:41:49;6.05;;;2.40;;
79220;SDS011;68648;52.114;5.424;2023-04-24T01:44:16;7.82;;;2.75;;
79220;SDS011;68648;52.114;5.424;2023-04-24T01:46:43;6.22;;;2.63;;
79220;SDS011;68648;52.114;5.424;2023-04-24T01:49:10;6.85;;;3.28;;
79220;SDS011;68648;52.114;5.424;2023-04-24T01:51:37;7.15;;;3.17;;
79220;SDS011;68648;52.114;5.424;2023-04-24T01:54:04;9.30;;;2.80;;
79220;SDS011;68648;52.114;5.424;2023-04-24T01:56:33;7.40;;;2.65;;
79220;SDS011;68648;52.114;5.424;2023-04-24T01:59:01;7.80;;;2.33;;
79220;SDS011;68648;52.114;5.424;2023-04-24T02:01:32;8.23;;;2.97;;
79220;SDS011;68648;52.114;5.424;2023-04-24T02:04:03;7.28;;;2.63;;
79220;SDS011;68648;52.114;5.424;2023-04-24T02:06:31;6.55;;;1.95;;
79220;SDS011;68648;52.114;5.424;2023-04-24T02:08:58;6.10;;;2.15;;
79220;SDS011;68648;52.114;5.424;2023-04-24T02:11:25;4.88;;;2.55;;
79220;SDS011;68648;52.114;5.424;2023-04-24T02:13:52;6.90;;;1.67;;
79220;SDS011;68648;52.114;5.424;2023-04-24T02:16:19;5.45;;;1.73;;
79220;SDS011;68648;52.114;5.424;2023-04-24T02:18:45;6.25;;;1.70;;
79220;SDS011;68648;52.114;5.424;2023-04-24T02:21:12;6.80;;;1.98;;
79220;SDS011;68648;52.114;5.424;2023-04-24T02:26:05;8.52;;;2.10;;
79220;SDS011;68648;52.114;5.424;2023-04-24T02:28:32;6.95;;;2.22;;
79220;SDS011;68648;52.114;5.424;2023-04-24T02:30:58;6.40;;;2.33;;
79220;SDS011;68648;52.114;5.424;2023-04-24T02:35:51;7.82;;;2.15;;
79220;SDS011;68648;52.114;5.424;2023-04-24T02:40:44;5.82;;;1.73;;
79220;SDS011;68648;52.114;5.424;2023-04-24T02:43:10;6.65;;;2.65;;
79220;SDS011;68648;52.114;5.424;2023-04-24T02:45:37;6.63;;;2.20;;
79220;SDS011;68648;52.114;5.424;2023-04-24T02:48:04;5.68;;;2.08;;
79220;SDS011;68648;52.114;5.424;2023-04-24T02:52:59;7.25;;;2.40;;
79220;SDS011;68648;52.114;5.424;2023-04-24T02:55:26;6.30;;;2.45;;
79220;SDS011;68648;52.114;5.424;2023-04-24T02:57:52;6.82;;;2.78;;
79220;SDS011;68648;52.114;5.424;2023-04-24T03:00:19;6.90;;;2.67;;
79220;SDS011;68648;52.114;5.424;2023-04-24T03:02:46;9.05;;;2.75;;
79220;SDS011;68648;52.114;5.424;2023-04-24T03:05:12;7.85;;;2.70;;
79220;SDS011;68648;52.114;5.424;2023-04-24T03:07:39;7.35;;;2.38;;
79220;SDS011;68648;52.114;5.424;2023-04-24T03:10:06;7.20;;;2.45;;
79220;SDS011;68648;52.114;5.424;2023-04-24T03:12:33;6.78;;;2.30;;
79220;SDS011;68648;52.114;5.424;2023-04-24T03:15:00;6.88;;;2.00;;
79220;SDS011;68648;52.114;5.424;2023-04-24T03:17:27;7.90;;;2.22;;
79220;SDS011;68648;52.114;5.424;2023-04-24T03:22:19;8.55;;;2.20;;
79220;SDS011;68648;52.114;5.424;2023-04-24T03:27:12;7.20;;;2.30;;
79220;SDS011;68648;52.114;5.424;2023-04-24T03:29:39;8.50;;;2.47;;
79220;SDS011;68648;52.114;5.424;2023-04-24T03:32:06;7.30;;;2.58;;
79220;SDS011;68648;52.114;5.424;2023-04-24T03:36:58;7.88;;;2.55;;
79220;SDS011;68648;52.114;5.424;2023-04-24T03:39:25;6.85;;;2.30;;
79220;SDS011;68648;52.114;5.424;2023-04-24T03:41:51;7.03;;;2.20;;
79220;SDS011;68648;52.114;5.424;2023-04-24T03:46:44;9.57;;;2.40;;
79220;SDS011;68648;52.114;5.424;2023-04-24T03:51:37;7.03;;;2.13;;
79220;SDS011;68648;52.114;5.424;2023-04-24T03:54:05;7.53;;;2.47;;
79220;SDS011;68648;52.114;5.424;2023-04-24T03:56:31;9.60;;;2.65;;
79220;SDS011;68648;52.114;5.424;2023-04-24T04:01:24;6.93;;;2.22;;
79220;SDS011;68648;52.114;5.424;2023-04-24T04:03:51;8.60;;;2.05;;
79220;SDS011;68648;52.114;5.424;2023-04-24T04:06:17;7.15;;;2.45;;
79220;SDS011;68648;52.114;5.424;2023-04-24T04:08:45;9.27;;;2.78;;
79220;SDS011;68648;52.114;5.424;2023-04-24T04:13:38;8.60;;;2.72;;
79220;SDS011;68648;52.114;5.424;2023-04-24T04:16:04;8.45;;;3.17;;
79220;SDS011;68648;52.114;5.424;2023-04-24T04:18:33;8.13;;;2.80;;
79220;SDS011;68648;52.114;5.424;2023-04-24T04:21:00;8.95;;;2.83;;
79220;SDS011;68648;52.114;5.424;2023-04-24T04:23:27;10.75;;;3.25;;
79220;SDS011;68648;52.114;5.424;2023-04-24T04:25:54;9.38;;;2.78;;
79220;SDS011;68648;52.114;5.424;2023-04-24T04:28:21;10.13;;;2.97;;
79220;SDS011;68648;52.114;5.424;2023-04-24T04:30:47;9.20;;;3.00;;
79220;SDS011;68648;52.114;5.424;2023-04-24T04:35:40;8.80;;;2.90;;
79220;SDS011;68648;52.114;5.424;2023-04-24T04:38:07;7.18;;;2.63;;
79220;SDS011;68648;52.114;5.424;2023-04-24T04:40:34;12.00;;;3.33;;
79220;SDS011;68648;52.114;5.424;2023-04-24T04:43:01;9.13;;;3.22;;
79220;SDS011;68648;52.114;5.424;2023-04-24T04:45:28;9.57;;;3.10;;
79220;SDS011;68648;52.114;5.424;2023-04-24T04:47:55;7.70;;;2.30;;
79220;SDS011;68648;52.114;5.424;2023-04-24T04:50:21;10.18;;;2.50;;
79220;SDS011;68648;52.114;5.424;2023-04-24T04:52:49;9.43;;;2.30;;
79220;SDS011;68648;52.114;5.424;2023-04-24T04:55:15;10.40;;;2.50;;
79220;SDS011;68648;52.114;5.424;2023-04-24T04:57:43;8.82;;;2.28;;
79220;SDS011;68648;52.114;5.424;2023-04-24T05:00:09;9.20;;;2.75;;
79220;SDS011;68648;52.114;5.424;2023-04-24T05:02:39;7.38;;;2.67;;
79220;SDS011;68648;52.114;5.424;2023-04-24T05:05:06;8.55;;;2.88;;
79220;SDS011;68648;52.114;5.424;2023-04-24T05:07:33;10.07;;;2.75;;
79220;SDS011;68648;52.114;5.424;2023-04-24T05:09:59;9.82;;;3.20;;
79220;SDS011;68648;52.114;5.424;2023-04-24T05:12:26;8.65;;;2.88;;
79220;SDS011;68648;52.114;5.424;2023-04-24T05:14:53;8.40;;;2.72;;
79220;SDS011;68648;52.114;5.424;2023-04-24T05:17:19;9.07;;;2.88;;
79220;SDS011;68648;52.114;5.424;2023-04-24T05:19:46;9.43;;;2.55;;
79220;SDS011;68648;52.114;5.424;2023-04-24T05:22:15;8.05;;;2.78;;
79220;SDS011;68648;52.114;5.424;2023-04-24T05:24:43;9.68;;;3.25;;
79220;SDS011;68648;52.114;5.424;2023-04-24T05:27:10;8.95;;;2.85;;
79220;SDS011;68648;52.114;5.424;2023-04-24T05:29:38;6.97;;;2.22;;
79220;SDS011;68648;52.114;5.424;2023-04-24T05:32:06;8.25;;;2.72;;
79220;SDS011;68648;52.114;5.424;2023-04-24T05:36:59;6.22;;;2.03;;
79220;SDS011;68648;52.114;5.424;2023-04-24T05:39:26;7.05;;;1.92;;
79220;SDS011;68648;52.114;5.424;2023-04-24T05:41:54;6.00;;;1.73;;
79220;SDS011;68648;52.114;5.424;2023-04-24T05:44:24;8.35;;;2.40;;
79220;SDS011;68648;52.114;5.424;2023-04-24T05:46:50;6.57;;;1.88;;
79220;SDS011;68648;52.114;5.424;2023-04-24T05:49:17;14.15;;;1.75;;
79220;SDS011;68648;52.114;5.424;2023-04-24T05:51:43;5.10;;;1.60;;
79220;SDS011;68648;52.114;5.424;2023-04-24T05:54:10;6.65;;;1.50;;
79220;SDS011;68648;52.114;5.424;2023-04-24T05:56:38;6.82;;;1.80;;
79220;SDS011;68648;52.114;5.424;2023-04-24T05:59:08;6.95;;;1.65;;
79220;SDS011;68648;52.114;5.424;2023-04-24T06:01:35;6.07;;;1.67;;
79220;SDS011;68648;52.114;5.424;2023-04-24T06:04:03;6.40;;;1.45;;
79220;SDS011;68648;52.114;5.424;2023-04-24T06:06:30;8.68;;;1.27;;
79220;SDS011;68648;52.114;5.424;2023-04-24T06:08:57;5.40;;;1.48;;
79220;SDS011;68648;52.114;5.424;2023-04-24T06:11:24;4.53;;;0.80;;
79220;SDS011;68648;52.114;5.424;2023-04-24T06:13:51;5.25;;;1.02;;
79220;SDS011;68648;52.114;5.424;2023-04-24T06:16:18;3.10;;;0.50;;
79220;SDS011;68648;52.114;5.424;2023-04-24T06:18:45;6.32;;;0.60;;
79220;SDS011;68648;52.114;5.424;2023-04-24T06:21:13;3.33;;;0.45;;
79220;SDS011;68648;52.114;5.424;2023-04-24T06:23:39;3.20;;;0.43;;
79220;SDS011;68648;52.114;5.424;2023-04-24T06:26:06;8.20;;;0.47;;
79220;SDS011;68648;52.114;5.424;2023-04-24T06:28:33;1.35;;;0.13;;
79220;SDS011;68648;52.114;5.424;2023-04-24T06:31:00;2.00;;;0.25;;
79220;SDS011;68648;52.114;5.424;2023-04-24T06:33:28;1.90;;;0.20;;
79220;SDS011;68648;52.114;5.424;2023-04-24T06:35:54;1.83;;;0.38;;
79220;SDS011;68648;52.114;5.424;2023-04-24T06:38:21;2.20;;;0.17;;
79220;SDS011;68648;52.114;5.424;2023-04-24T06:43:14;1.55;;;0.30;;
79220;SDS011;68648;52.114;5.424;2023-04-24T06:45:41;3.72;;;0.50;;
79220;SDS011;68648;52.114;5.424;2023-04-24T06:48:10;8.23;;;1.73;;
79220;SDS011;68648;52.114;5.424;2023-04-24T06:50:36;9.98;;;2.10;;
79220;SDS011;68648;52.114;5.424;2023-04-24T06:53:03;9.13;;;2.90;;
79220;SDS011;68648;52.114;5.424;2023-04-24T06:55:30;10.18;;;3.53;;
79220;SDS011;68648;52.114;5.424;2023-04-24T06:58:06;13.88;;;3.78;;
79220;SDS011;68648;52.114;5.424;2023-04-24T07:00:32;13.98;;;4.50;;
79220;SDS011;68648;52.114;5.424;2023-04-24T07:02:59;9.25;;;3.65;;
79220;SDS011;68648;52.114;5.424;2023-04-24T07:05:26;11.60;;;4.43;;
79220;SDS011;68648;52.114;5.424;2023-04-24T07:07:52;15.20;;;5.05;;
79220;SDS011;68648;52.114;5.424;2023-04-24T07:10:19;11.68;;;4.50;;
79220;SDS011;68648;52.114;5.424;2023-04-24T07:12:47;12.80;;;4.68;;
79220;SDS011;68648;52.114;5.424;2023-04-24T07:15:14;12.30;;;4.35;;
79220;SDS011;68648;52.114;5.424;2023-04-24T07:17:40;18.10;;;4.78;;
79220;SDS011;68648;52.114;5.424;2023-04-24T07:20:12;18.35;;;5.55;;
79220;SDS011;68648;52.114;5.424;2023-04-24T07:22:43;12.15;;;4.72;;
79220;SDS011;68648;52.114;5.424;2023-04-24T07:25:10;15.57;;;4.97;;
79220;SDS011;68648;52.114;5.424;2023-04-24T07:27:36;11.32;;;4.38;;
79220;SDS011;68648;52.114;5.424;2023-04-24T07:30:03;14.70;;;4.20;;
79220;SDS011;68648;52.114;5.424;2023-04-24T07:32:31;13.52;;;4.70;;
79220;SDS011;68648;52.114;5.424;2023-04-24T07:34:58;13.82;;;4.25;;
79220;SDS011;68648;52.114;5.424;2023-04-24T07:37:25;12.75;;;4.70;;
79220;SDS011;68648;52.114;5.424;2023-04-24T07:39:52;10.85;;;4.43;;
79220;SDS011;68648;52.114;5.424;2023-04-24T07:42:18;15.48;;;4.18;;
79220;SDS011;68648;52.114;5.424;2023-04-24T07:44:46;15.20;;;4.03;;
79220;SDS011;68648;52.114;5.424;2023-04-24T07:47:13;15.25;;;4.13;;
79220;SDS011;68648;52.114;5.424;2023-04-24T07:49:41;13.95;;;5.28;;
79220;SDS011;68648;52.114;5.424;2023-04-24T07:52:09;15.38;;;4.43;;
79220;SDS011;68648;52.114;5.424;2023-04-24T07:54:35;14.27;;;4.32;;
79220;SDS011;68648;52.114;5.424;2023-04-24T07:57:05;12.40;;;4.50;;
79220;SDS011;68648;52.114;5.424;2023-04-24T07:59:32;12.82;;;4.78;;
79220;SDS011;68648;52.114;5.424;2023-04-24T08:04:27;14.30;;;3.90;;
79220;SDS011;68648;52.114;5.424;2023-04-24T08:06:54;14.23;;;4.72;;
79220;SDS011;68648;52.114;5.424;2023-04-24T08:11:52;13.65;;;3.95;;
79220;SDS011;68648;52.114;5.424;2023-04-24T08:14:19;12.40;;;4.88;;
79220;SDS011;68648;52.114;5.424;2023-04-24T08:16:46;12.32;;;4.28;;
79220;SDS011;68648;52.114;5.424;2023-04-24T08:19:13;11.70;;;3.67;;
79220;SDS011;68648;52.114;5.424;2023-04-24T08:24:05;10.00;;;2.97;;
79220;SDS011;68648;52.114;5.424;2023-04-24T08:26:34;11.77;;;3.15;;
79220;SDS011;68648;52.114;5.424;2023-04-24T08:29:00;14.23;;;2.53;;
79220;SDS011;68648;52.114;5.424;2023-04-24T08:31:27;10.60;;;2.17;;
79220;SDS011;68648;52.114;5.424;2023-04-24T08:33:54;15.38;;;1.90;;
79220;SDS011;68648;52.114;5.424;2023-04-24T08:36:20;10.18;;;2.00;;
79220;SDS011;68648;52.114;5.424;2023-04-24T08:38:50;9.82;;;1.50;;
79220;SDS011;68648;52.114;5.424;2023-04-24T08:41:16;10.77;;;2.15;;
79220;SDS011;68648;52.114;5.424;2023-04-24T08:43:45;12.13;;;1.45;;
79220;SDS011;68648;52.114;5.424;2023-04-24T08:46:13;10.48;;;2.00;;
79220;SDS011;68648;52.114;5.424;2023-04-24T08:48:42;10.35;;;2.42;;
79220;SDS011;68648;52.114;5.424;2023-04-24T08:51:09;9.25;;;1.52;;
79220;SDS011;68648;52.114;5.424;2023-04-24T08:53:37;13.13;;;1.20;;
79220;SDS011;68648;52.114;5.424;2023-04-24T08:56:04;10.88;;;1.23;;
79220;SDS011;68648;52.114;5.424;2023-04-24T08:58:31;9.80;;;1.30;;
79220;SDS011;68648;52.114;5.424;2023-04-24T09:00:58;10.35;;;1.30;;
79220;SDS011;68648;52.114;5.424;2023-04-24T09:03:26;12.13;;;1.45;;
79220;SDS011;68648;52.114;5.424;2023-04-24T09:05:54;8.20;;;1.88;;
79220;SDS011;68648;52.114;5.424;2023-04-24T09:08:22;7.35;;;1.13;;
79220;SDS011;68648;52.114;5.424;2023-04-24T09:10:50;8.27;;;1.15;;
79220;SDS011;68648;52.114;5.424;2023-04-24T09:13:19;18.33;;;1.45;;
79220;SDS011;68648;52.114;5.424;2023-04-24T09:15:46;6.90;;;1.02;;
79220;SDS011;68648;52.114;5.424;2023-04-24T09:18:13;14.18;;;1.40;;
79220;SDS011;68648;52.114;5.424;2023-04-24T09:20:57;9.93;;;1.10;;
79220;SDS011;68648;52.114;5.424;2023-04-24T09:23:32;9.52;;;1.20;;
79220;SDS011;68648;52.114;5.424;2023-04-24T09:25:59;9.75;;;1.42;;
79220;SDS011;68648;52.114;5.424;2023-04-24T09:28:35;14.40;;;1.25;;
79220;SDS011;68648;52.114;5.424;2023-04-24T09:33:35;7.10;;;0.85;;
79220;SDS011;68648;52.114;5.424;2023-04-24T09:36:02;7.80;;;0.70;;
79220;SDS011;68648;52.114;5.424;2023-04-24T09:38:33;10.25;;;0.98;;
79220;SDS011;68648;52.114;5.424;2023-04-24T09:41:05;13.27;;;1.13;;
79220;SDS011;68648;52.114;5.424;2023-04-24T09:43:34;10.07;;;1.88;;
79220;SDS011;68648;52.114;5.424;2023-04-24T09:46:06;8.98;;;0.73;;
79220;SDS011;68648;52.114;5.424;2023-04-24T09:48:34;11.63;;;1.13;;
79220;SDS011;68648;52.114;5.424;2023-04-24T09:51:03;11.07;;;1.38;;
79220;SDS011;68648;52.114;5.424;2023-04-24T09:53:33;8.57;;;0.80;;
79220;SDS011;68648;52.114;5.424;2023-04-24T09:56:06;7.43;;;0.70;;
79220;SDS011;68648;52.114;5.424;2023-04-24T09:58:37;11.02;;;1.25;;
79220;SDS011;68648;52.114;5.424;2023-04-24T10:01:04;7.95;;;0.90;;
79220;SDS011;68648;52.114;5.424;2023-04-24T10:03:31;6.90;;;0.60;;
79220;SDS011;68648;52.114;5.424;2023-04-24T10:06:00;5.10;;;0.70;;
79220;SDS011;68648;52.114;5.424;2023-04-24T10:08:35;8.32;;;1.08;;
79220;SDS011;68648;52.114;5.424;2023-04-24T10:11:03;9.93;;;1.05;;
79220;SDS011;68648;52.114;5.424;2023-04-24T10:13:30;4.68;;;0.70;;
79220;SDS011;68648;52.114;5.424;2023-04-24T10:15:59;3.92;;;0.50;;
79220;SDS011;68648;52.114;5.424;2023-04-24T10:18:27;4.10;;;0.73;;
79220;SDS011;68648;52.114;5.424;2023-04-24T10:20:54;6.45;;;1.00;;
79220;SDS011;68648;52.114;5.424;2023-04-24T10:23:22;6.57;;;0.90;;
79220;SDS011;68648;52.114;5.424;2023-04-24T10:25:51;7.75;;;1.00;;
79220;SDS011;68648;52.114;5.424;2023-04-24T10:28:19;7.57;;;1.65;;
79220;SDS011;68648;52.114;5.424;2023-04-24T10:30:46;5.68;;;0.80;;
79220;SDS011;68648;52.114;5.424;2023-04-24T10:33:13;6.65;;;0.60;;
79220;SDS011;68648;52.114;5.424;2023-04-24T10:35:44;5.78;;;0.60;;
79220;SDS011;68648;52.114;5.424;2023-04-24T10:38:21;5.55;;;0.50;;
79220;SDS011;68648;52.114;5.424;2023-04-24T10:40:57;3.78;;;0.30;;
79220;SDS011;68648;52.114;5.424;2023-04-24T10:43:33;4.45;;;0.28;;
79220;SDS011;68648;52.114;5.424;2023-04-24T10:46:00;3.97;;;0.65;;
79220;SDS011;68648;52.114;5.424;2023-04-24T10:48:31;3.05;;;0.40;;
79220;SDS011;68648;52.114;5.424;2023-04-24T10:50:58;3.58;;;0.30;;
79220;SDS011;68648;52.114;5.424;2023-04-24T10:53:28;2.83;;;0.30;;
79220;SDS011;68648;52.114;5.424;2023-04-24T10:56:02;2.90;;;0.20;;
79220;SDS011;68648;52.114;5.424;2023-04-24T11:01:23;3.60;;;0.30;;
79220;SDS011;68648;52.114;5.424;2023-04-24T11:03:50;3.83;;;0.38;;
79220;SDS011;68648;52.114;5.424;2023-04-24T11:06:33;2.50;;;0.30;;
79220;SDS011;68648;52.114;5.424;2023-04-24T11:09:07;5.05;;;0.35;;
79220;SDS011;68648;52.114;5.424;2023-04-24T11:11:36;2.22;;;0.30;;
79220;SDS011;68648;52.114;5.424;2023-04-24T11:14:06;3.08;;;0.22;;
79220;SDS011;68648;52.114;5.424;2023-04-24T11:24:27;6.38;;;0.30;;
79220;SDS011;68648;52.114;5.424;2023-04-24T11:27:15;4.68;;;0.30;;
79220;SDS011;68648;52.114;5.424;2023-04-24T11:30:05;2.63;;;0.43;;
79220;SDS011;68648;52.114;5.424;2023-04-24T11:32:41;3.08;;;0.35;;
79220;SDS011;68648;52.114;5.424;2023-04-24T11:35:16;3.55;;;0.52;;
79220;SDS011;68648;52.114;5.424;2023-04-24T11:37:48;1.77;;;0.22;;
79220;SDS011;68648;52.114;5.424;2023-04-24T11:40:19;5.53;;;0.52;;
79220;SDS011;68648;52.114;5.424;2023-04-24T11:42:50;3.60;;;0.40;;
79220;SDS011;68648;52.114;5.424;2023-04-24T11:45:22;4.40;;;0.40;;
79220;SDS011;68648;52.114;5.424;2023-04-24T11:47:55;6.80;;;0.60;;
79220;SDS011;68648;52.114;5.424;2023-04-24T11:50:24;5.38;;;0.30;;
79220;SDS011;68648;52.114;5.424;2023-04-24T11:52:53;4.18;;;0.30;;
79220;SDS011;68648;52.114;5.424;2023-04-24T11:57:47;4.05;;;0.50;;
79220;SDS011;68648;52.114;5.424;2023-04-24T12:00:19;2.20;;;0.30;;
79220;SDS011;68648;52.114;5.424;2023-04-24T12:02:47;4.03;;;0.40;;
79220;SDS011;68648;52.114;5.424;2023-04-24T12:07:53;1.50;;;0.22;;
79220;SDS011;68648;52.114;5.424;2023-04-24T12:10:20;4.00;;;0.20;;
79220;SDS011;68648;52.114;5.424;2023-04-24T12:12:50;3.58;;;0.60;;
79220;SDS011;68648;52.114;5.424;2023-04-24T12:15:24;4.57;;;0.32;;
79220;SDS011;68648;52.114;5.424;2023-04-24T12:17:51;2.42;;;0.10;;
79220;SDS011;68648;52.114;5.424;2023-04-24T12:20:29;1.30;;;0.20;;
79220;SDS011;68648;52.114;5.424;2023-04-24T12:23:00;4.80;;;0.40;;
79220;SDS011;68648;52.114;5.424;2023-04-24T12:25:28;3.20;;;0.22;;
79220;SDS011;68648;52.114;5.424;2023-04-24T12:30:32;4.75;;;0.50;;
79220;SDS011;68648;52.114;5.424;2023-04-24T12:33:08;5.75;;;0.32;;
79220;SDS011;68648;52.114;5.424;2023-04-24T12:35:39;10.38;;;0.50;;
79220;SDS011;68648;52.114;5.424;2023-04-24T12:38:12;7.13;;;1.08;;
79220;SDS011;68648;52.114;5.424;2023-04-24T12:40:41;1.98;;;0.30;;
79220;SDS011;68648;52.114;5.424;2023-04-24T12:43:14;7.10;;;0.35;;
79220;SDS011;68648;52.114;5.424;2023-04-24T12:45:42;7.82;;;0.50;;
79220;SDS011;68648;52.114;5.424;2023-04-24T12:48:12;7.57;;;0.75;;
79220;SDS011;68648;52.114;5.424;2023-04-24T12:50:41;4.85;;;0.65;;
79220;SDS011;68648;52.114;5.424;2023-04-24T12:53:12;5.53;;;0.60;;
79220;SDS011;68648;52.114;5.424;2023-04-24T12:55:40;5.30;;;0.43;;
79220;SDS011;68648;52.114;5.424;2023-04-24T12:58:06;6.03;;;0.70;;
79220;SDS011;68648;52.114;5.424;2023-04-24T13:00:33;5.82;;;0.60;;
79220;SDS011;68648;52.114;5.424;2023-04-24T13:03:00;4.88;;;0.50;;
79220;SDS011;68648;52.114;5.424;2023-04-24T13:05:28;2.95;;;0.43;;
79220;SDS011;68648;52.114;5.424;2023-04-24T13:07:55;6.13;;;0.60;;
79220;SDS011;68648;52.114;5.424;2023-04-24T13:10:21;8.80;;;0.80;;
79220;SDS011;68648;52.114;5.424;2023-04-24T13:15:38;8.27;;;1.27;;
79220;SDS011;68648;52.114;5.424;2023-04-24T13:52:31;10.13;;;1.30;;
79220;SDS011;68648;52.114;5.424;2023-04-24T13:59:11;7.07;;;1.08;;
79220;SDS011;68648;52.114;5.424;2023-04-24T14:02:07;6.13;;;1.17;;
79220;SDS011;68648;52.114;5.424;2023-04-24T14:04:37;6.63;;;0.80;;
79220;SDS011;68648;52.114;5.424;2023-04-24T14:07:08;6.25;;;1.13;;
79220;SDS011;68648;52.114;5.424;2023-04-24T14:09:36;5.78;;;0.68;;
79220;SDS011;68648;52.114;5.424;2023-04-24T14:12:08;6.70;;;0.63;;
79220;SDS011;68648;52.114;5.424;2023-04-24T14:14:35;9.02;;;0.77;;
79220;SDS011;68648;52.114;5.424;2023-04-24T14:18:02;7.47;;;1.05;;
79220;SDS011;68648;52.114;5.424;2023-04-24T14:20:32;8.70;;;1.08;;
79220;SDS011;68648;52.114;5.424;2023-04-24T14:23:12;8.13;;;1.00;;
79220;SDS011;68648;52.114;5.424;2023-04-24T14:25:51;8.40;;;1.27;;
79220;SDS011;68648;52.114;5.424;2023-04-24T14:29:25;6.45;;;1.17;;
79220;SDS011;68648;52.114;5.424;2023-04-24T14:32:24;9.27;;;1.75;;
79220;SDS011;68648;52.114;5.424;2023-04-24T14:34:59;6.63;;;1.05;;
79220;SDS011;68648;52.114;5.424;2023-04-24T14:38:39;7.75;;;1.33;;
79220;SDS011;68648;52.114;5.424;2023-04-24T14:41:18;5.88;;;1.00;;
79220;SDS011;68648;52.114;5.424;2023-04-24T14:44:03;8.45;;;1.02;;
79220;SDS011;68648;52.114;5.424;2023-04-24T14:46:37;8.85;;;0.80;;
79220;SDS011;68648;52.114;5.424;2023-04-24T14:49:30;8.38;;;1.10;;
79220;SDS011;68648;52.114;5.424;2023-04-24T14:51:57;9.90;;;1.10;;
79220;SDS011;68648;52.114;5.424;2023-04-24T14:58:05;5.55;;;0.93;;
79220;SDS011;68648;52.114;5.424;2023-04-24T15:25:12;8.60;;;1.48;;
79220;SDS011;68648;52.114;5.424;2023-04-24T15:28:53;9.65;;;0.82;;
79220;SDS011;68648;52.114;5.424;2023-04-24T15:31:22;8.45;;;1.55;;
79220;SDS011;68648;52.114;5.424;2023-04-24T15:35:08;8.70;;;1.45;;
79220;SDS011;68648;52.114;5.424;2023-04-24T15:38:31;8.65;;;1.70;;
79220;SDS011;68648;52.114;5.424;2023-04-24T15:42:13;6.93;;;1.45;;
79220;SDS011;68648;52.114;5.424;2023-04-24T15:45:32;10.55;;;1.67;;
79220;SDS011;68648;52.114;5.424;2023-04-24T15:48:00;10.93;;;1.40;;
79220;SDS011;68648;52.114;5.424;2023-04-24T16:28:55;8.02;;;0.90;;
79220;SDS011;68648;52.114;5.424;2023-04-24T16:43:03;11.27;;;1.40;;
79220;SDS011;68648;52.114;5.424;2023-04-24T16:52:15;9.43;;;1.98;;
79220;SDS011;68648;52.114;5.424;2023-04-24T16:54:53;11.00;;;1.70;;
79220;SDS011;68648;52.114;5.424;2023-04-24T16:58:42;9.68;;;2.13;;
79220;SDS011;68648;52.114;5.424;2023-04-24T17:01:10;11.52;;;1.90;;
79220;SDS011;68648;52.114;5.424;2023-04-24T17:03:54;12.27;;;2.30;;
79220;SDS011;68648;52.114;5.424;2023-04-24T17:06:59;11.60;;;1.63;;
79220;SDS011;68648;52.114;5.424;2023-04-24T17:10:42;14.95;;;1.88;;
79220;SDS011;68648;52.114;5.424;2023-04-24T17:13:21;8.18;;;1.20;;
79220;SDS011;68648;52.114;5.424;2023-04-24T17:16:12;11.75;;;1.70;;
79220;SDS011;68648;52.114;5.424;2023-04-24T17:18:41;10.27;;;1.65;;
79220;SDS011;68648;52.114;5.424;2023-04-24T17:21:13;10.60;;;1.70;;
79220;SDS011;68648;52.114;5.424;2023-04-24T17:24:21;15.38;;;1.55;;
79220;SDS011;68648;52.114;5.424;2023-04-24T17:26:48;8.90;;;1.77;;
79220;SDS011;68648;52.114;5.424;2023-04-24T17:30:02;20.70;;;2.35;;
79220;SDS011;68648;52.114;5.424;2023-04-24T17:32:39;11.20;;;1.58;;
79220;SDS011;68648;52.114;5.424;2023-04-24T17:35:46;9.00;;;1.42;;
79220;SDS011;68648;52.114;5.424;2023-04-24T17:38:39;9.52;;;1.80;;
79220;SDS011;68648;52.114;5.424;2023-04-24T17:41:08;7.85;;;1.15;;
79220;SDS011;68648;52.114;5.424;2023-04-24T17:43:37;11.43;;;1.50;;
79220;SDS011;68648;52.114;5.424;2023-04-24T17:46:08;11.52;;;1.20;;
79220;SDS011;68648;52.114;5.424;2023-04-24T17:48:39;9.73;;;1.90;;
79220;SDS011;68648;52.114;5.424;2023-04-24T17:51:06;9.15;;;1.50;;
79220;SDS011;68648;52.114;5.424;2023-04-24T17:53:34;8.95;;;2.10;;
79220;SDS011;68648;52.114;5.424;2023-04-24T17:58:33;11.23;;;1.98;;
79220;SDS011;68648;52.114;5.424;2023-04-24T18:01:01;7.82;;;1.25;;
79220;SDS011;68648;52.114;5.424;2023-04-24T18:03:28;12.02;;;1.70;;
79220;SDS011;68648;52.114;5.424;2023-04-24T18:05:55;12.48;;;1.40;;
79220;SDS011;68648;52.114;5.424;2023-04-24T18:08:23;9.52;;;1.27;;
79220;SDS011;68648;52.114;5.424;2023-04-24T18:10:50;8.13;;;1.60;;
79220;SDS011;68648;52.114;5.424;2023-04-24T18:13:17;13.73;;;1.77;;
79220;SDS011;68648;52.114;5.424;2023-04-24T18:15:44;9.30;;;1.50;;
79220;SDS011;68648;52.114;5.424;2023-04-24T18:18:12;10.35;;;1.50;;
79220;SDS011;68648;52.114;5.424;2023-04-24T18:20:41;12.32;;;1.50;;
79220;SDS011;68648;52.114;5.424;2023-04-24T18:23:07;6.55;;;1.17;;
79220;SDS011;68648;52.114;5.424;2023-04-24T18:25:34;11.60;;;1.30;;
79220;SDS011;68648;52.114;5.424;2023-04-24T18:28:02;14.07;;;1.52;;